createdAt,value
2023-05-22T00:00:48.989Z,1.39
2023-05-22T00:01:49.074Z,1.39
2023-05-22T00:02:49.098Z,1.41
2023-05-22T00:03:49.001Z,1.36
2023-05-22T00:04:49.027Z,1.37
2023-05-22T00:05:48.990Z,1.37
2023-05-22T00:06:49.001Z,1.33
2023-05-22T00:07:49.003Z,1.35
2023-05-22T00:08:48.971Z,1.31
2023-05-22T00:09:48.979Z,1.32
2023-05-22T00:10:48.970Z,1.27
2023-05-22T00:11:48.995Z,1.30
2023-05-22T00:12:49.072Z,1.34
2023-05-22T00:13:49.099Z,1.36
2023-05-22T00:14:49.151Z,1.37
2023-05-22T00:15:49.206Z,1.39
2023-05-22T00:16:49.305Z,1.33
2023-05-22T00:17:49.324Z,1.36
2023-05-22T00:18:49.319Z,1.34
2023-05-22T00:19:49.327Z,1.38
2023-05-22T00:20:49.358Z,1.35
2023-05-22T00:21:49.471Z,1.37
2023-05-22T00:22:49.368Z,1.34
2023-05-22T00:23:49.365Z,1.35
2023-05-22T00:24:49.386Z,1.34
2023-05-22T00:25:49.507Z,1.28
2023-05-22T00:26:49.426Z,1.28
2023-05-22T00:27:49.495Z,1.24
2023-05-22T00:28:49.511Z,1.30
2023-05-22T00:29:49.575Z,1.34
2023-05-22T00:30:49.601Z,1.31
2023-05-22T00:31:49.722Z,1.30
2023-05-22T00:32:49.738Z,1.27
2023-05-22T00:33:49.712Z,1.28
2023-05-22T00:34:49.849Z,1.31
2023-05-22T00:35:49.792Z,1.28
2023-05-22T00:36:49.992Z,1.26
2023-05-22T00:37:49.820Z,1.25
2023-05-22T00:38:49.835Z,1.29
2023-05-22T00:39:49.859Z,1.29
2023-05-22T00:40:49.834Z,1.29
2023-05-22T00:41:49.832Z,1.29
2023-05-22T00:42:49.801Z,1.30
2023-05-22T00:43:49.784Z,1.29
2023-05-22T00:44:49.785Z,1.30
2023-05-22T00:45:49.749Z,1.27
2023-05-22T00:46:49.764Z,1.27
2023-05-22T00:47:49.792Z,1.30
2023-05-22T00:48:49.711Z,1.30
2023-05-22T00:49:49.683Z,1.31
2023-05-22T00:50:49.683Z,1.30
2023-05-22T00:51:49.657Z,1.31
2023-05-22T00:52:49.674Z,1.28
2023-05-22T00:53:49.655Z,1.30
2023-05-22T00:54:49.652Z,1.33
2023-05-22T00:55:49.619Z,1.33
2023-05-22T00:56:49.610Z,1.37
2023-05-22T00:57:49.591Z,1.37
2023-05-22T00:58:49.586Z,1.36
2023-05-22T00:59:49.559Z,1.38
2023-05-22T01:00:49.588Z,1.33
2023-05-22T01:01:49.606Z,1.31
2023-05-22T01:02:49.591Z,1.35
2023-05-22T01:03:49.597Z,1.32
2023-05-22T01:04:49.511Z,1.31
2023-05-22T01:05:49.459Z,1.29
2023-05-22T01:06:49.469Z,1.30
2023-05-22T01:07:49.463Z,1.34
2023-05-22T01:08:49.487Z,1.34
2023-05-22T01:09:49.516Z,1.35
2023-05-22T01:10:49.553Z,1.31
2023-05-22T01:11:49.593Z,1.30
2023-05-22T01:12:49.650Z,1.28
2023-05-22T01:13:49.632Z,1.29
2023-05-22T01:14:49.646Z,1.33
2023-05-22T01:15:49.719Z,1.30
2023-05-22T01:16:49.686Z,1.30
2023-05-22T01:17:49.696Z,1.32
2023-05-22T01:18:49.671Z,1.34
2023-05-22T01:19:49.659Z,1.35
2023-05-22T01:20:49.641Z,1.37
2023-05-22T01:21:49.666Z,1.38
2023-05-22T01:22:49.690Z,1.38
2023-05-22T01:23:49.693Z,1.37
2023-05-22T01:24:49.705Z,1.34
2023-05-22T01:25:49.684Z,1.31
2023-05-22T01:26:49.687Z,1.28
2023-05-22T01:27:49.682Z,1.27
2023-05-22T01:28:49.663Z,1.28
2023-05-22T01:29:49.648Z,1.32
2023-05-22T01:30:49.659Z,1.30
2023-05-22T01:31:49.697Z,1.28
2023-05-22T01:32:49.800Z,1.31
2023-05-22T01:33:49.723Z,1.35
2023-05-22T01:34:49.697Z,1.36
2023-05-22T01:35:49.675Z,1.36
2023-05-22T01:36:49.697Z,1.37
2023-05-22T01:37:49.713Z,1.32
2023-05-22T01:38:49.733Z,1.35
2023-05-22T01:39:49.732Z,1.35
2023-05-22T01:40:49.741Z,1.36
2023-05-22T01:41:49.739Z,1.34
2023-05-22T01:42:49.785Z,1.33
2023-05-22T01:43:49.828Z,1.31
2023-05-22T01:44:49.829Z,1.33
2023-05-22T01:45:49.906Z,1.30
2023-05-22T01:46:49.861Z,1.31
2023-05-22T01:47:49.918Z,1.38
2023-05-22T01:48:49.824Z,1.36
2023-05-22T01:49:49.823Z,1.38
2023-05-22T01:50:49.825Z,1.36
2023-05-22T01:51:49.815Z,1.32
2023-05-22T01:52:49.835Z,1.38
2023-05-22T01:53:49.823Z,1.42
2023-05-22T01:54:49.799Z,1.37
2023-05-22T01:55:49.793Z,1.39
2023-05-22T01:56:49.805Z,1.40
2023-05-22T01:57:49.785Z,1.40
2023-05-22T01:58:49.784Z,1.41
2023-05-22T01:59:49.752Z,1.42
2023-05-22T02:00:49.822Z,1.43
2023-05-22T02:01:49.840Z,1.43
2023-05-22T02:02:49.822Z,1.39
2023-05-22T02:03:49.801Z,1.40
2023-05-22T02:04:49.720Z,1.43
2023-05-22T02:05:49.675Z,1.46
2023-05-22T02:06:49.667Z,1.45
2023-05-22T02:07:49.657Z,1.42
2023-05-22T02:08:49.643Z,1.47
2023-05-22T02:09:49.616Z,1.47
2023-05-22T02:10:49.614Z,1.46
2023-05-22T02:11:49.593Z,1.43
2023-05-22T02:12:49.587Z,1.45
2023-05-22T02:13:49.570Z,1.45
2023-05-22T02:14:49.569Z,1.45
2023-05-22T02:15:49.578Z,1.45
2023-05-22T02:16:49.535Z,1.46
2023-05-22T02:17:49.603Z,1.45
2023-05-22T02:18:49.580Z,1.47
2023-05-22T02:19:49.508Z,1.46
2023-05-22T02:20:49.496Z,1.41
2023-05-22T02:21:49.499Z,1.45
2023-05-22T02:22:49.492Z,1.44
2023-05-22T02:23:49.479Z,1.43
2023-05-22T02:24:49.466Z,1.47
2023-05-22T02:25:49.482Z,1.50
2023-05-22T02:26:49.463Z,1.50
2023-05-22T02:27:49.447Z,1.50
2023-05-22T02:28:49.563Z,1.49
2023-05-22T02:29:49.416Z,1.50
2023-05-22T02:30:49.439Z,1.50
2023-05-22T02:31:49.420Z,1.50
2023-05-22T02:32:49.425Z,1.49
2023-05-22T02:33:49.367Z,1.52
2023-05-22T02:34:49.355Z,1.50
2023-05-22T02:35:49.352Z,1.51
2023-05-22T02:36:49.353Z,1.51
2023-05-22T02:37:49.337Z,1.53
2023-05-22T02:38:49.322Z,1.55
2023-05-22T02:39:49.324Z,1.51
2023-05-22T02:40:49.320Z,1.57
2023-05-22T02:41:49.292Z,1.50
2023-05-22T02:42:49.317Z,1.55
2023-05-22T02:43:49.279Z,1.49
2023-05-22T02:44:49.260Z,1.49
2023-05-22T02:45:49.261Z,1.50
2023-05-22T02:46:49.320Z,1.49
2023-05-22T02:47:49.259Z,1.54
2023-05-22T02:48:49.229Z,1.59
2023-05-22T02:49:49.212Z,1.57
2023-05-22T02:50:49.200Z,1.59
2023-05-22T02:51:49.184Z,1.57
2023-05-22T02:52:49.186Z,1.59
2023-05-22T02:53:49.199Z,1.60
2023-05-22T02:54:49.183Z,1.61
2023-05-22T02:55:49.157Z,1.57
2023-05-22T02:56:49.145Z,1.59
2023-05-22T02:57:49.142Z,1.61
2023-05-22T02:58:49.113Z,1.56
2023-05-22T02:59:49.093Z,1.56
2023-05-22T03:00:49.095Z,1.60
2023-05-22T03:01:49.115Z,1.56
2023-05-22T03:02:49.174Z,1.56
2023-05-22T03:03:49.126Z,1.53
2023-05-22T03:04:49.025Z,1.54
2023-05-22T03:05:49.000Z,1.57
2023-05-22T03:06:48.999Z,1.57
2023-05-22T03:07:49.054Z,1.60
2023-05-22T03:08:48.961Z,1.60
2023-05-22T03:09:48.949Z,1.61
2023-05-22T03:10:48.925Z,1.61
2023-05-22T03:11:48.931Z,1.60
2023-05-22T03:12:48.898Z,1.59
2023-05-22T03:13:48.875Z,1.63
2023-05-22T03:14:48.882Z,1.61
2023-05-22T03:15:48.843Z,1.61
2023-05-22T03:16:48.902Z,1.64
2023-05-22T03:17:48.884Z,1.61
2023-05-22T03:18:48.874Z,1.57
2023-05-22T03:19:48.795Z,1.56
2023-05-22T03:20:48.782Z,1.58
2023-05-22T03:21:48.784Z,1.62
2023-05-22T03:22:48.770Z,1.60
2023-05-22T03:23:48.755Z,1.58
2023-05-22T03:24:48.757Z,1.61
2023-05-22T03:25:48.737Z,1.58
2023-05-22T03:26:48.732Z,1.54
2023-05-22T03:27:48.738Z,1.58
2023-05-22T03:28:48.711Z,1.56
2023-05-22T03:29:48.701Z,1.58
2023-05-22T03:30:48.692Z,1.57
2023-05-22T03:31:48.684Z,1.58
2023-05-22T03:32:48.815Z,1.60
2023-05-22T03:33:48.716Z,1.61
2023-05-22T03:34:48.674Z,1.59
2023-05-22T03:35:48.646Z,1.60
2023-05-22T03:36:48.650Z,1.61
2023-05-22T03:37:48.645Z,1.59
2023-05-22T03:38:48.611Z,1.61
2023-05-22T03:39:48.604Z,1.58
2023-05-22T03:40:48.579Z,1.60
2023-05-22T03:41:48.568Z,1.59
2023-05-22T03:42:48.578Z,1.63
2023-05-22T03:43:48.548Z,1.60
2023-05-22T03:44:48.541Z,1.59
2023-05-22T03:45:48.536Z,1.63
2023-05-22T03:46:48.512Z,1.65
2023-05-22T03:47:48.997Z,1.59
2023-05-22T03:48:48.507Z,1.60
2023-05-22T03:49:48.483Z,1.63
2023-05-22T03:50:48.472Z,1.61
2023-05-22T03:51:48.452Z,1.58
2023-05-22T03:52:48.468Z,1.56
2023-05-22T03:53:48.439Z,1.60
2023-05-22T03:54:48.424Z,1.61
2023-05-22T03:55:48.400Z,1.60
2023-05-22T03:56:48.400Z,1.62
2023-05-22T03:57:48.399Z,1.64
2023-05-22T03:58:48.385Z,1.62
2023-05-22T03:59:48.377Z,1.62
2023-05-22T04:00:48.373Z,1.58
2023-05-22T04:01:48.367Z,1.62
2023-05-22T04:02:48.419Z,1.63
2023-05-22T04:03:48.378Z,1.62
2023-05-22T04:04:48.505Z,1.61
2023-05-22T04:05:48.373Z,1.65
2023-05-22T04:06:48.372Z,1.64
2023-05-22T04:07:48.372Z,1.61
2023-05-22T04:08:48.365Z,1.63
2023-05-22T04:09:48.352Z,1.66
2023-05-22T04:10:48.359Z,1.58
2023-05-22T04:11:48.358Z,1.69
2023-05-22T04:12:48.358Z,1.66
2023-05-22T04:13:48.348Z,1.65
2023-05-22T04:14:48.354Z,1.70
2023-05-22T04:15:48.389Z,1.71
2023-05-22T04:16:50.456Z,1.69
2023-05-22T04:17:48.366Z,1.73
2023-05-22T04:18:48.375Z,1.73
2023-05-22T04:19:48.339Z,1.71
2023-05-22T04:20:48.318Z,1.66
2023-05-22T04:21:48.321Z,1.66
2023-05-22T04:22:48.339Z,1.65
2023-05-22T04:23:48.326Z,1.67
2023-05-22T04:24:48.342Z,1.67
2023-05-22T04:25:48.397Z,1.67
2023-05-22T04:26:48.347Z,1.67
2023-05-22T04:27:48.362Z,1.67
2023-05-22T04:28:48.375Z,1.67
2023-05-22T04:29:48.372Z,1.64
2023-05-22T04:30:48.440Z,1.68
2023-05-22T04:31:48.423Z,1.69
2023-05-22T04:32:48.434Z,1.71
2023-05-22T04:33:48.437Z,1.70
2023-05-22T04:34:48.413Z,1.66
2023-05-22T04:35:48.479Z,1.66
2023-05-22T04:36:48.430Z,1.70
2023-05-22T04:37:48.435Z,1.68
2023-05-22T04:38:48.433Z,1.69
2023-05-22T04:39:48.453Z,1.70
2023-05-22T04:40:48.461Z,1.69
2023-05-22T04:41:48.460Z,1.73
2023-05-22T04:42:48.457Z,1.71
2023-05-22T04:43:48.462Z,1.67
2023-05-22T04:44:48.549Z,1.68
2023-05-22T04:45:48.462Z,1.68
2023-05-22T04:46:48.526Z,1.74
2023-05-22T04:47:48.527Z,1.65
2023-05-22T04:48:48.463Z,1.63
2023-05-22T04:49:48.457Z,1.72
2023-05-22T04:50:48.456Z,1.69
2023-05-22T04:51:48.462Z,1.69
2023-05-22T04:52:48.465Z,1.68
2023-05-22T04:53:48.457Z,1.65
2023-05-22T04:54:48.445Z,1.70
2023-05-22T04:55:48.460Z,1.67
2023-05-22T04:56:48.450Z,1.67
2023-05-22T04:57:48.469Z,1.68
2023-05-22T04:58:48.429Z,1.70
2023-05-22T04:59:48.427Z,1.72
2023-05-22T05:00:48.443Z,1.67
2023-05-22T05:01:48.423Z,1.68
2023-05-22T05:02:48.443Z,1.71
2023-05-22T05:03:48.450Z,1.74
2023-05-22T05:04:48.384Z,1.75
2023-05-22T05:05:48.382Z,1.74
2023-05-22T05:06:48.371Z,1.74
2023-05-22T05:07:49.976Z,1.74
2023-05-22T05:08:48.467Z,1.76
2023-05-22T05:09:48.358Z,1.78
2023-05-22T05:10:48.334Z,1.78
2023-05-22T05:11:48.346Z,1.73
2023-05-22T05:12:48.328Z,1.71
2023-05-22T05:13:48.318Z,1.71
2023-05-22T05:14:48.308Z,1.71
2023-05-22T05:15:48.302Z,1.69
2023-05-22T05:16:48.360Z,1.71
2023-05-22T05:17:48.338Z,1.69
2023-05-22T05:18:48.311Z,1.69
2023-05-22T05:19:48.290Z,1.68
2023-05-22T05:20:48.289Z,1.65
2023-05-22T05:21:48.262Z,1.67
2023-05-22T05:22:48.261Z,1.65
2023-05-22T05:23:48.245Z,1.67
2023-05-22T05:24:48.408Z,1.65
2023-05-22T05:25:48.224Z,1.66
2023-05-22T05:26:48.235Z,1.68
2023-05-22T05:27:48.233Z,1.68
2023-05-22T05:28:48.201Z,1.68
2023-05-22T05:29:48.190Z,1.67
2023-05-22T05:30:48.185Z,1.69
2023-05-22T05:31:48.242Z,1.69
2023-05-22T05:32:48.237Z,1.64
2023-05-22T05:33:48.187Z,1.68
2023-05-22T05:34:48.165Z,1.68
2023-05-22T05:35:48.162Z,1.72
2023-05-22T05:36:48.156Z,1.82
2023-05-22T05:37:48.161Z,2.03
2023-05-22T05:38:48.142Z,2.47
2023-05-22T05:39:48.151Z,2.73
2023-05-22T05:40:48.142Z,2.90
2023-05-22T05:41:48.202Z,3.24
2023-05-22T05:42:48.116Z,3.49
2023-05-22T05:43:48.119Z,3.76
2023-05-22T05:44:48.101Z,4.18
2023-05-22T05:45:48.115Z,4.80
2023-05-22T05:46:48.074Z,5.27
2023-05-22T05:47:48.134Z,5.57
2023-05-22T05:48:48.071Z,5.86
2023-05-22T05:49:48.116Z,6.53
2023-05-22T05:50:48.153Z,7.08
2023-05-22T05:51:48.194Z,7.50
2023-05-22T05:52:48.233Z,7.96
2023-05-22T05:53:48.196Z,8.00
2023-05-22T05:54:48.162Z,8.17
2023-05-22T05:55:48.175Z,8.62
2023-05-22T05:56:48.206Z,9.61
2023-05-22T05:57:48.130Z,11.35
2023-05-22T05:58:48.096Z,8.07
2023-05-22T05:59:48.075Z,8.49
2023-05-22T06:00:48.028Z,9.29
2023-05-22T06:01:48.012Z,10.38
2023-05-22T06:02:50.586Z,11.32
2023-05-22T06:03:48.032Z,11.53
2023-05-22T06:04:47.991Z,11.24
2023-05-22T06:05:47.938Z,10.40
2023-05-22T06:06:47.869Z,9.85
2023-05-22T06:07:47.887Z,8.20
2023-05-22T06:08:47.837Z,8.69
2023-05-22T06:09:47.839Z,8.44
2023-05-22T06:10:47.808Z,8.18
2023-05-22T06:11:47.782Z,8.13
2023-05-22T06:12:47.750Z,7.53
2023-05-22T06:13:47.744Z,5.75
2023-05-22T06:14:47.708Z,7.34
2023-05-22T06:15:47.700Z,8.38
2023-05-22T06:16:47.804Z,8.38
2023-05-22T06:17:47.761Z,8.85
2023-05-22T06:18:47.686Z,9.23
2023-05-22T06:19:47.681Z,9.17
2023-05-22T06:20:47.596Z,9.35
2023-05-22T06:21:47.802Z,9.69
2023-05-22T06:22:47.550Z,9.74
2023-05-22T06:23:47.518Z,9.58
2023-05-22T06:24:47.525Z,10.25
2023-05-22T06:25:48.080Z,10.42
2023-05-22T06:26:47.507Z,9.98
2023-05-22T06:27:47.485Z,10.23
2023-05-22T06:28:47.402Z,10.11
2023-05-22T06:29:47.429Z,10.54
2023-05-22T06:30:47.618Z,10.68
2023-05-22T06:31:47.369Z,10.70
2023-05-22T06:32:47.461Z,10.79
2023-05-22T06:33:47.347Z,11.02
2023-05-22T06:34:47.238Z,11.36
2023-05-22T06:35:47.243Z,12.65
2023-05-22T06:36:47.169Z,13.02
2023-05-22T06:37:47.140Z,13.48
2023-05-22T06:38:47.165Z,12.91
2023-05-22T06:39:47.047Z,12.43
2023-05-22T06:40:47.112Z,12.89
2023-05-22T06:41:48.037Z,12.93
2023-05-22T06:42:47.080Z,13.19
2023-05-22T06:43:47.076Z,12.85
2023-05-22T06:44:47.287Z,12.05
2023-05-22T06:45:47.094Z,12.30
2023-05-22T06:46:47.150Z,12.71
2023-05-22T06:47:47.064Z,13.00
2023-05-22T06:48:46.981Z,13.28
2023-05-22T06:49:46.962Z,13.64
2023-05-22T06:50:46.989Z,13.93
2023-05-22T06:51:46.987Z,13.50
2023-05-22T06:52:47.010Z,13.13
2023-05-22T06:53:47.073Z,13.25
2023-05-22T06:54:47.042Z,13.14
2023-05-22T06:55:47.077Z,13.18
2023-05-22T06:56:47.068Z,13.02
2023-05-22T06:57:47.107Z,12.93
2023-05-22T06:58:47.131Z,13.11
2023-05-22T06:59:47.148Z,13.18
2023-05-22T07:00:47.168Z,12.98
2023-05-22T07:01:47.287Z,13.03
2023-05-22T07:02:47.279Z,13.06
2023-05-22T07:03:47.111Z,13.08
2023-05-22T07:04:47.041Z,13.66
2023-05-22T07:05:47.021Z,14.76
2023-05-22T07:06:47.014Z,14.74
2023-05-22T07:07:46.975Z,14.80
2023-05-22T07:08:46.933Z,14.32
2023-05-22T07:09:46.964Z,15.52
2023-05-22T07:10:46.992Z,15.80
2023-05-22T07:11:47.017Z,16.19
2023-05-22T07:12:47.053Z,15.57
2023-05-22T07:13:47.074Z,14.68
2023-05-22T07:14:47.035Z,14.70
2023-05-22T07:15:47.031Z,14.83
2023-05-22T07:16:47.028Z,14.93
2023-05-22T07:17:47.103Z,14.73
2023-05-22T07:18:46.939Z,14.74
2023-05-22T07:19:46.896Z,14.95
2023-05-22T07:20:46.851Z,15.17
2023-05-22T07:21:46.843Z,15.50
2023-05-22T07:22:46.819Z,15.75
2023-05-22T07:23:46.796Z,15.75
2023-05-22T07:24:46.818Z,15.29
2023-05-22T07:25:46.732Z,14.92
2023-05-22T07:26:46.805Z,15.02
2023-05-22T07:27:46.821Z,14.73
2023-05-22T07:28:46.928Z,14.16
2023-05-22T07:29:46.849Z,13.95
2023-05-22T07:30:46.882Z,13.82
2023-05-22T07:31:46.917Z,13.78
2023-05-22T07:32:46.948Z,13.78
2023-05-22T07:33:46.901Z,13.79
2023-05-22T07:34:46.895Z,13.42
2023-05-22T07:35:46.837Z,13.46
2023-05-22T07:36:46.807Z,12.80
2023-05-22T07:37:46.779Z,12.23
2023-05-22T07:38:46.760Z,10.49
2023-05-22T07:39:46.928Z,10.49
2023-05-22T07:40:46.653Z,10.27
2023-05-22T07:41:46.642Z,9.71
2023-05-22T07:42:46.690Z,9.59
2023-05-22T07:43:46.713Z,9.74
2023-05-22T07:44:46.744Z,9.82
2023-05-22T07:45:46.818Z,10.05
2023-05-22T07:46:46.801Z,10.06
2023-05-22T07:47:46.854Z,9.61
2023-05-22T07:48:46.789Z,8.69
2023-05-22T07:49:46.675Z,8.59
2023-05-22T07:50:46.686Z,8.68
2023-05-22T07:51:46.624Z,9.89
2023-05-22T07:52:46.587Z,10.01
2023-05-22T07:53:46.572Z,10.20
2023-05-22T07:54:46.557Z,10.31
2023-05-22T07:55:46.511Z,10.59
2023-05-22T07:56:46.490Z,10.85
2023-05-22T07:57:46.460Z,10.81
2023-05-22T07:58:46.448Z,11.04
2023-05-22T07:59:46.415Z,10.94
2023-05-22T08:00:46.434Z,11.05
2023-05-22T08:01:46.465Z,9.94
2023-05-22T08:02:46.547Z,9.09
2023-05-22T08:03:46.680Z,8.18
2023-05-22T08:04:46.696Z,7.30
2023-05-22T08:05:46.713Z,6.58
2023-05-22T08:06:46.636Z,6.48
2023-05-22T08:07:46.620Z,6.46
2023-05-22T08:08:46.658Z,5.77
2023-05-22T08:09:46.678Z,5.70
2023-05-22T08:11:02.461Z,5.50
2023-05-22T08:11:47.671Z,5.50
2023-05-22T08:12:46.652Z,5.32
2023-05-22T08:13:46.645Z,4.96
2023-05-22T08:14:46.570Z,4.50
2023-05-22T08:15:46.551Z,4.20
2023-05-22T08:16:46.573Z,3.74
2023-05-22T08:17:46.522Z,2.91
2023-05-22T08:18:46.506Z,2.50
2023-05-22T08:19:46.593Z,2.31
2023-05-22T08:20:46.458Z,2.27
2023-05-22T08:21:46.506Z,2.21
2023-05-22T08:22:46.494Z,2.32
2023-05-22T08:23:46.512Z,2.53
2023-05-22T08:24:46.538Z,2.52
2023-05-22T08:25:46.562Z,2.59
2023-05-22T08:26:46.616Z,2.49
2023-05-22T08:27:46.608Z,2.48
2023-05-22T08:28:46.642Z,2.42
2023-05-22T08:29:46.673Z,2.39
2023-05-22T08:30:46.675Z,2.25
2023-05-22T08:31:46.732Z,1.54
2023-05-22T08:32:46.716Z,1.41
2023-05-22T08:33:46.643Z,1.42
2023-05-22T08:34:46.613Z,1.57
2023-05-22T08:35:46.579Z,1.73
2023-05-22T08:36:46.665Z,1.69
2023-05-22T08:37:46.530Z,1.40
2023-05-22T08:38:46.521Z,1.54
2023-05-22T08:39:46.543Z,1.45
2023-05-22T08:40:46.742Z,1.28
2023-05-22T08:41:46.524Z,1.09
2023-05-22T08:42:46.615Z,0.97
2023-05-22T08:43:46.833Z,0.88
2023-05-22T08:44:46.696Z,0.82
2023-05-22T08:45:46.739Z,0.85
2023-05-22T08:46:46.730Z,0.67
2023-05-22T08:47:46.759Z,0.60
2023-05-22T08:48:46.780Z,0.63
2023-05-22T08:49:46.783Z,0.62
2023-05-22T08:50:46.744Z,0.56
2023-05-22T08:51:46.758Z,0.58
2023-05-22T08:52:46.905Z,0.67
2023-05-22T08:53:46.728Z,0.81
2023-05-22T08:54:46.680Z,0.90
2023-05-22T08:55:46.665Z,0.67
2023-05-22T08:56:56.235Z,0.56
2023-05-22T08:57:47.625Z,0.56
2023-05-22T08:58:46.561Z,0.49
2023-05-22T08:59:46.550Z,0.53
2023-05-22T09:00:46.683Z,0.51
2023-05-22T09:01:46.511Z,0.51
2023-05-22T09:02:46.657Z,0.52
2023-05-22T09:03:46.580Z,0.51
2023-05-22T09:04:46.420Z,0.50
2023-05-22T09:05:46.449Z,0.50
2023-05-22T09:06:46.350Z,0.51
2023-05-22T09:07:46.361Z,0.57
2023-05-22T09:08:46.295Z,0.63
2023-05-22T09:09:46.307Z,0.96
2023-05-22T09:10:46.276Z,0.99
2023-05-22T09:11:46.272Z,0.84
2023-05-22T09:12:46.277Z,0.89
2023-05-22T09:13:46.272Z,1.00
2023-05-22T09:14:46.232Z,1.09
2023-05-22T09:15:46.204Z,1.20
2023-05-22T09:16:46.211Z,1.08
2023-05-22T09:17:46.202Z,1.14
2023-05-22T09:18:46.176Z,1.05
2023-05-22T09:19:46.219Z,1.13
2023-05-22T09:20:46.039Z,1.10
2023-05-22T09:21:46.268Z,1.21
2023-05-22T09:22:46.014Z,1.29
2023-05-22T09:23:45.981Z,1.21
2023-05-22T09:24:45.973Z,1.17
2023-05-22T09:25:45.951Z,1.16
2023-05-22T09:26:45.920Z,1.19
2023-05-22T09:27:46.589Z,1.15
2023-05-22T09:28:45.932Z,1.14
2023-05-22T09:29:45.958Z,1.28
2023-05-22T09:30:45.979Z,1.28
2023-05-22T09:31:46.132Z,1.22
2023-05-22T09:32:46.035Z,1.26
2023-05-22T09:33:45.988Z,1.32
2023-05-22T09:34:45.989Z,1.08
2023-05-22T09:35:46.020Z,0.83
2023-05-22T09:36:46.029Z,0.78
2023-05-22T09:37:46.071Z,0.92
2023-05-22T09:38:46.076Z,0.92
2023-05-22T09:39:46.044Z,0.77
2023-05-22T09:40:46.080Z,0.85
2023-05-22T09:41:46.113Z,0.34
2023-05-22T09:42:46.151Z,0.34
2023-05-22T09:43:46.175Z,0.38
2023-05-22T09:44:46.278Z,0.34
2023-05-22T09:45:46.208Z,0.34
2023-05-22T09:46:46.308Z,0.34
2023-05-22T09:47:46.145Z,0.34
2023-05-22T09:48:46.102Z,0.34
2023-05-22T09:49:46.103Z,0.34
2023-05-22T09:50:46.151Z,0.34
2023-05-22T09:51:46.073Z,0.34
2023-05-22T09:52:46.031Z,0.34
2023-05-22T09:53:45.998Z,0.34
2023-05-22T09:54:45.956Z,0.34
2023-05-22T09:55:45.936Z,0.34
2023-05-22T09:56:45.937Z,0.34
2023-05-22T09:57:45.934Z,0.34
2023-05-22T09:58:45.913Z,0.34
2023-05-22T09:59:45.874Z,0.34
2023-05-22T10:00:45.891Z,0.34
2023-05-22T10:01:45.892Z,0.34
2023-05-22T10:02:45.928Z,0.34
2023-05-22T10:03:47.320Z,0.34
2023-05-22T10:04:45.899Z,0.34
2023-05-22T10:05:45.759Z,0.34
2023-05-22T10:06:45.790Z,0.34
2023-05-22T10:07:45.798Z,0.34
2023-05-22T10:08:45.759Z,0.34
2023-05-22T10:09:45.730Z,0.34
2023-05-22T10:10:45.702Z,0.34
2023-05-22T10:11:45.674Z,0.34
2023-05-22T10:12:45.769Z,0.34
2023-05-22T10:13:45.631Z,0.34
2023-05-22T10:14:45.676Z,0.34
2023-05-22T10:15:45.650Z,0.34
2023-05-22T10:16:45.566Z,0.34
2023-05-22T10:17:45.659Z,0.34
2023-05-22T10:18:45.570Z,0.34
2023-05-22T10:19:46.861Z,0.34
2023-05-22T10:20:45.507Z,0.34
2023-05-22T10:21:45.504Z,0.34
2023-05-22T10:22:45.454Z,0.34
2023-05-22T10:23:45.439Z,0.34
2023-05-22T10:24:45.395Z,0.34
2023-05-22T10:25:45.338Z,0.42
2023-05-22T10:26:45.352Z,0.56
2023-05-22T10:27:45.306Z,0.65
2023-05-22T10:28:45.346Z,0.73
2023-05-22T10:29:45.244Z,0.81
2023-05-22T10:30:45.199Z,0.90
2023-05-22T10:31:45.168Z,1.01
2023-05-22T10:32:45.230Z,1.07
2023-05-22T10:33:45.196Z,1.15
2023-05-22T10:34:45.176Z,1.42
2023-05-22T10:35:45.232Z,2.04
2023-05-22T10:36:46.608Z,2.92
2023-05-22T10:37:45.221Z,2.33
2023-05-22T10:38:45.185Z,1.60
2023-05-22T10:39:45.141Z,1.74
2023-05-22T10:40:45.238Z,1.40
2023-05-22T10:41:45.092Z,1.48
2023-05-22T10:42:45.078Z,2.29
2023-05-22T10:43:44.984Z,3.85
2023-05-22T10:44:45.062Z,3.89
2023-05-22T10:45:45.639Z,4.25
2023-05-22T10:46:44.920Z,5.33
2023-05-22T10:47:45.192Z,8.14
2023-05-22T10:48:44.888Z,13.48
2023-05-22T10:49:44.981Z,16.44
2023-05-22T10:50:44.755Z,18.21
2023-05-22T10:51:45.621Z,18.23
2023-05-22T10:52:44.697Z,18.47
2023-05-22T10:53:44.640Z,20.50
2023-05-22T10:54:44.641Z,18.57
2023-05-22T10:55:44.703Z,20.27
2023-05-22T10:56:44.527Z,24.44
2023-05-22T10:57:44.501Z,35.12
2023-05-22T10:58:44.468Z,60.17
2023-05-22T10:59:44.446Z,73.76
2023-05-22T11:00:44.500Z,73.68
2023-05-22T11:01:44.399Z,78.84
2023-05-22T11:02:44.319Z,91.91
2023-05-22T11:03:44.372Z,106.40
2023-05-22T11:04:44.279Z,107.04
2023-05-22T11:05:44.210Z,103.48
2023-05-22T11:06:45.268Z,107.72
2023-05-22T11:07:44.140Z,117.77
2023-05-22T11:08:44.123Z,138.60
2023-05-22T11:09:44.130Z,158.28
2023-05-22T11:10:44.010Z,185.43
2023-05-22T11:11:44.008Z,216.70
2023-05-22T11:12:44.190Z,236.62
2023-05-22T11:13:43.925Z,182.97
2023-05-22T11:14:43.880Z,130.83
2023-05-22T11:15:43.843Z,79.16
2023-05-22T11:16:43.935Z,79.63
2023-05-22T11:17:43.811Z,31.47
2023-05-22T11:18:45.203Z,26.56
2023-05-22T11:19:43.746Z,22.77
2023-05-22T11:20:43.680Z,22.45
2023-05-22T11:21:43.693Z,24.54
2023-05-22T11:22:43.752Z,25.39
2023-05-22T11:23:43.735Z,23.00
2023-05-22T11:24:43.765Z,16.21
2023-05-22T11:25:43.805Z,9.13
2023-05-22T11:26:43.827Z,5.81
2023-05-22T11:27:43.840Z,8.96
2023-05-22T11:28:43.908Z,9.41
2023-05-22T11:29:43.906Z,6.66
2023-05-22T11:30:43.945Z,6.49
2023-05-22T11:31:44.027Z,2.16
2023-05-22T11:32:44.062Z,1.33
2023-05-22T11:33:43.959Z,0.92
2023-05-22T11:34:44.530Z,0.67
2023-05-22T11:35:43.911Z,0.55
2023-05-22T11:36:43.893Z,0.48
2023-05-22T11:37:43.877Z,0.60
2023-05-22T11:38:43.850Z,0.85
2023-05-22T11:39:43.827Z,1.28
2023-05-22T11:40:44.096Z,1.69
2023-05-22T11:41:43.781Z,2.63
2023-05-22T11:42:43.806Z,3.59
2023-05-22T11:43:43.791Z,4.16
2023-05-22T11:44:43.788Z,4.58
2023-05-22T11:45:43.769Z,4.96
2023-05-22T11:46:43.838Z,5.83
2023-05-22T11:47:43.887Z,6.69
2023-05-22T11:48:43.896Z,6.74
2023-05-22T11:49:43.777Z,7.03
2023-05-22T11:50:44.023Z,7.87
2023-05-22T11:51:43.724Z,9.71
2023-05-22T11:52:43.677Z,14.29
2023-05-22T11:53:43.641Z,16.20
2023-05-22T11:54:43.615Z,16.28
2023-05-22T11:55:43.572Z,16.83
2023-05-22T11:56:43.578Z,18.36
2023-05-22T11:57:43.537Z,21.68
2023-05-22T11:58:43.499Z,28.34
2023-05-22T11:59:43.482Z,32.12
2023-05-22T12:00:43.485Z,33.82
2023-05-22T12:01:43.515Z,37.94
2023-05-22T12:02:43.566Z,41.09
2023-05-22T12:03:43.622Z,45.08
2023-05-22T12:04:43.620Z,47.77
2023-05-22T12:05:43.554Z,50.14
2023-05-22T12:06:43.620Z,55.19
2023-05-22T12:07:43.605Z,57.27
2023-05-22T12:08:43.623Z,60.39
2023-05-22T12:09:43.626Z,64.84
2023-05-22T12:10:43.663Z,68.07
2023-05-22T12:11:43.720Z,71.69
2023-05-22T12:12:43.796Z,75.26
2023-05-22T12:13:43.777Z,77.14
2023-05-22T12:14:43.766Z,82.41
2023-05-22T12:15:43.750Z,83.37
2023-05-22T12:16:43.872Z,87.94
2023-05-22T12:17:43.779Z,90.95
2023-05-22T12:18:43.740Z,95.33
2023-05-22T12:19:43.722Z,96.85
2023-05-22T12:20:43.807Z,100.23
2023-05-22T12:21:43.752Z,105.25
2023-05-22T12:22:43.763Z,108.68
2023-05-22T12:23:43.715Z,108.95
2023-05-22T12:24:43.648Z,110.03
2023-05-22T12:25:43.619Z,112.69
2023-05-22T12:26:43.617Z,117.61
2023-05-22T12:27:43.584Z,124.16
2023-05-22T12:28:43.570Z,130.21
2023-05-22T12:29:43.541Z,130.73
2023-05-22T12:30:43.561Z,135.29
2023-05-22T12:31:43.468Z,139.77
2023-05-22T12:32:43.513Z,138.07
2023-05-22T12:33:43.404Z,142.38
2023-05-22T12:34:44.099Z,144.26
2023-05-22T12:35:43.354Z,145.62
2023-05-22T12:36:43.423Z,144.92
2023-05-22T12:37:43.292Z,146.97
2023-05-22T12:38:43.295Z,154.40
2023-05-22T12:39:43.252Z,153.06
2023-05-22T12:40:43.231Z,149.75
2023-05-22T12:41:43.198Z,153.76
2023-05-22T12:42:43.165Z,153.60
2023-05-22T12:43:43.133Z,156.01
2023-05-22T12:44:43.109Z,156.01
2023-05-22T12:45:43.067Z,152.90
2023-05-22T12:46:43.084Z,154.56
2023-05-22T12:47:43.047Z,158.88
2023-05-22T12:48:42.977Z,158.75
2023-05-22T12:49:42.937Z,161.14
2023-05-22T12:50:42.929Z,158.31
2023-05-22T12:51:42.879Z,161.11
2023-05-22T12:52:42.957Z,157.25
2023-05-22T12:53:42.816Z,161.39
2023-05-22T12:54:42.783Z,160.17
2023-05-22T12:55:42.753Z,161.33
2023-05-22T12:56:42.731Z,158.46
2023-05-22T12:57:42.749Z,158.43
2023-05-22T12:58:42.654Z,158.05
2023-05-22T12:59:42.616Z,161.54
2023-05-22T13:00:42.635Z,163.71
2023-05-22T13:01:42.599Z,163.64
2023-05-22T13:02:42.592Z,163.96
2023-05-22T13:03:42.501Z,162.94
2023-05-22T13:04:42.524Z,162.89
2023-05-22T13:05:42.649Z,165.26
2023-05-22T13:06:42.436Z,163.57
2023-05-22T13:07:42.401Z,165.19
2023-05-22T13:08:42.501Z,159.94
2023-05-22T13:09:42.381Z,158.56